地図

経路データ

SID SEASON NUMBER BASIN SUBBASIN NAME ISO_TIME NATURE LAT LON WMO_WIND WMO_PRES WMO_AGENCY TRACK_TYPE DIST2LAND LANDFALL IFLAG USA_AGENCY USA_ATCF_ID USA_LAT USA_LON USA_RECORD USA_STATUS USA_WIND USA_PRES USA_SSHS USA_R34_NE USA_R34_SE USA_R34_SW USA_R34_NW USA_R50_NE USA_R50_SE USA_R50_SW USA_R50_NW USA_R64_NE USA_R64_SE USA_R64_SW USA_R64_NW USA_POCI USA_ROCI USA_RMW USA_EYE TOKYO_LAT TOKYO_LON TOKYO_GRADE TOKYO_WIND TOKYO_PRES TOKYO_R50_DIR TOKYO_R50_LONG TOKYO_R50_SHORT TOKYO_R30_DIR TOKYO_R30_LONG TOKYO_R30_SHORT TOKYO_LAND CMA_LAT CMA_LON CMA_CAT CMA_WIND CMA_PRES HKO_LAT HKO_LON HKO_CAT HKO_WIND HKO_PRES NEWDELHI_LAT NEWDELHI_LON NEWDELHI_GRADE NEWDELHI_WIND NEWDELHI_PRES NEWDELHI_CI NEWDELHI_DP NEWDELHI_POCI REUNION_LAT REUNION_LON REUNION_TYPE REUNION_WIND REUNION_PRES REUNION_TNUM REUNION_CI REUNION_RMW REUNION_R34_NE REUNION_R34_SE REUNION_R34_SW REUNION_R34_NW REUNION_R50_NE REUNION_R50_SE REUNION_R50_SW REUNION_R50_NW REUNION_R64_NE REUNION_R64_SE REUNION_R64_SW REUNION_R64_NW BOM_LAT BOM_LON BOM_TYPE BOM_WIND BOM_PRES BOM_TNUM BOM_CI BOM_RMW BOM_R34_NE BOM_R34_SE BOM_R34_SW BOM_R34_NW BOM_R50_NE BOM_R50_SE BOM_R50_SW BOM_R50_NW BOM_R64_NE BOM_R64_SE BOM_R64_SW BOM_R64_NW BOM_ROCI BOM_POCI BOM_EYE BOM_POS_METHOD BOM_PRES_METHOD NADI_LAT NADI_LON NADI_CAT NADI_WIND NADI_PRES WELLINGTON_LAT WELLINGTON_LON WELLINGTON_WIND WELLINGTON_PRES DS824_LAT DS824_LON DS824_STAGE DS824_WIND DS824_PRES TD9636_LAT TD9636_LON TD9636_STAGE TD9636_WIND TD9636_PRES TD9635_LAT TD9635_LON TD9635_WIND TD9635_PRES TD9635_ROCI NEUMANN_LAT NEUMANN_LON NEUMANN_CLASS NEUMANN_WIND NEUMANN_PRES MLC_LAT MLC_LON MLC_CLASS MLC_WIND MLC_PRES USA_GUST BOM_GUST BOM_GUST_PER REUNION_GUST REUNION_GUST_PER USA_SEAHGT USA_SEARAD_NE USA_SEARAD_SE USA_SEARAD_SW USA_SEARAD_NW STORM_SPEED STORM_DIR
1992304N18178 1992 119 WP MM NOT_NAMED 1992-10-30 00:00:00 NR 17.7000 178.200 main 2348 2348 O_____________ jtwc_wp WP291992 17.7000 178.200 15 -1 10 281
1992304N18178 1992 119 WP MM NOT_NAMED 1992-10-30 03:00:00 NR 17.7903 177.698 main 2396 2396 P_____________ WP291992 17.7903 177.698 15 -1 10 282
1992304N18178 1992 119 WP MM NOT_NAMED 1992-10-30 06:00:00 NR 17.9000 177.200 main 2444 2444 O_____________ jtwc_wp WP291992 17.9000 177.200 15 -1 10 285
1992304N18178 1992 119 WP MM NOT_NAMED 1992-10-30 09:00:00 NR 18.0423 176.707 main 2493 2490 P_____________ WP291992 18.0423 176.707 15 -1 10 288
1992304N18178 1992 119 WP MM NOT_NAMED 1992-10-30 12:00:00 NR 18.2000 176.200 main 2538 2538 O_____________ jtwc_wp WP291992 18.2000 176.200 15 -1 10 288
1992304N18178 1992 119 WP MM NOT_NAMED 1992-10-30 15:00:00 NR 18.3574 175.658 main 2585 2585 P_____________ WP291992 18.3574 175.658 17 -1 11 286
1992304N18178 1992 119 WP MM NOT_NAMED 1992-10-30 18:00:00 NR 18.5000 175.100 main 2644 2644 O_____________ jtwc_wp WP291992 18.5000 175.100 20 -1 11 283
1992304N18178 1992 119 WP MM NOT_NAMED 1992-10-30 21:00:00 NR 18.6074 174.542 main 2703 2703 P_____________ WP291992 18.6074 174.542 20 -1 11 281
1992304N18178 1992 119 WP MM NOT_NAMED 1992-10-31 00:00:00 NR 18.7000 174.000 main 2752 2752 O_____________ jtwc_wp WP291992 18.7000 174.000 20 -1 10 282
1992304N18178 1992 119 WP MM NOT_NAMED 1992-10-31 03:00:00 NR 18.8222 173.500 main 2801 2801 P_____________ WP291992 18.8222 173.500 20 -1 10 282
1992304N18178 1992 119 WP MM NOT_NAMED 1992-10-31 06:00:00 NR 18.9000 173.000 main 2850 2850 O_____________ jtwc_wp WP291992 18.9000 173.000 20 -1 10 274
1992304N18178 1992 119 WP MM NOT_NAMED 1992-10-31 09:00:00 NR 18.8874 172.457 main 2902 2902 P_____________ WP291992 18.8874 172.457 22 -1 10 265
1992304N18178 1992 119 WP MM NOT_NAMED 1992-10-31 12:00:00 NR 18.8000 171.900 main 2966 2966 O_____________ jtwc_wp WP291992 18.8000 171.900 25 -1 11 258
1992304N18178 1992 119 WP MM NOT_NAMED 1992-10-31 15:00:00 NR 18.6646 171.372 main 3020 3020 P_____________ WP291992 18.6646 171.372 25 -1 11 254
1992304N18178 1992 119 WP MM NOT_NAMED 1992-10-31 18:00:00 NR 18.5000 170.800 main 3086 3086 O_____________ jtwc_wp WP291992 18.5000 170.800 25 -1 12 253
1992304N18178 1992 119 WP MM NOT_NAMED 1992-10-31 21:00:00 NR 18.3047 170.144 main 3127 3072 P_____________ WP291992 18.3047 170.144 25 -1 14 257
1992304N18178 1992 119 WP MM NOT_NAMED 1992-11-01 00:00:00 NR 18.2000 169.400 main 3072 3027 O_____________ jtwc_wp WP291992 18.2000 169.400 25 -1 15 269
1992304N18178 1992 119 WP MM NOT_NAMED 1992-11-01 03:00:00 NR 18.2825 168.565 main 3027 2987 P_____________ WP291992 18.2825 168.565 25 -1 16 281
1992304N18178 1992 119 WP MM NOT_NAMED 1992-11-01 06:00:00 NR 18.5000 167.700 main 2987 2961 O_____________ jtwc_wp WP291992 18.5000 167.700 25 -1 16 288
1992304N18178 1992 119 WP MM NOT_NAMED 1992-11-01 09:00:00 NR 18.7918 166.915 main 2964 2945 P_____________ WP291992 18.7918 166.915 25 -1 16 292
1992304N18178 1992 119 WP MM NOT_NAMED 1992-11-01 12:00:00 NR 19.1000 166.100 main 2945 2912 O_____________ jtwc_wp WP291992 19.1000 166.100 25 -1 17 287
1992304N18178 1992 119 WP MM NOT_NAMED 1992-11-01 15:00:00 NR 19.3072 165.179 main 2912 2882 P_____________ WP291992 19.3072 165.179 25 -1 18 283
1992304N18178 1992 119 WP MM NOT_NAMED 1992-11-01 18:00:00 NR 19.5000 164.200 main 2877 2815 O_____________ jtwc_wp WP291992 19.5000 164.200 25 -1 19 282
1992304N18178 1992 119 WP MM NOT_NAMED 1992-11-01 21:00:00 NR 19.6975 163.177 main 2815 2725 P_____________ WP291992 19.6975 163.177 25 -1 19 285
1992304N18178 1992 119 WP MM NOT_NAMED 1992-11-02 00:00:00 NR 20.0000 162.200 main 2717 2626 O_____________ jtwc_wp WP291992 20.0000 162.200 25 -1 19 294
1992304N18178 1992 119 WP MM NOT_NAMED 1992-11-02 03:00:00 NR 20.4520 161.347 main 2611 2512 P_____________ WP291992 20.4520 161.347 22 -1 19 306
1992304N18178 1992 119 WP MM NOT_NAMED 1992-11-02 06:00:00 NR 21.1000 160.600 main 2512 2398 O_____________ jtwc_wp WP291992 21.1000 160.600 20 -1 20 318
1992304N18178 1992 119 WP MM NOT_NAMED 1992-11-02 09:00:00 NR 21.9323 159.898 main 2398 2284 P_____________ WP291992 21.9323 159.898 20 -1 22 326
1992304N18178 1992 119 WP MM NOT_NAMED 1992-11-02 12:00:00 NR 22.9000 159.300 main 2276 2171 O_____________ jtwc_wp WP291992 22.9000 159.300 20 -1 22 333
1992304N18178 1992 119 WP MM NOT_NAMED 1992-11-02 15:00:00 NR 23.8976 158.818 main 2163 2067 P_____________ WP291992 23.8976 158.818 17 -1 22 338
1992304N18178 1992 119 WP MM NOT_NAMED 1992-11-02 18:00:00 NR 24.9000 158.400 main 2060 O_____________ jtwc_wp WP291992 24.9000 158.400 15 -1 22 339

デジタル台風データ・検索

IBTrACS Databaseについて

本データベースは、米国NOAAが公開する1842年以降の世界の熱帯低気圧のベストトラックデータアーカイブInternational Best Track Archive for Climate Stewardship (IBTrACS)を、ウェブで閲覧しやすい形式に変換したものです。

最終更新日:2021-12-01